createdAt,value
2017-12-09T00:02:20.842Z,94057.89
2017-12-09T00:04:49.174Z,94061.69
2017-12-09T00:07:17.636Z,94062.02
2017-12-09T00:09:45.974Z,94064.61
2017-12-09T00:12:14.309Z,94071.92
2017-12-09T00:14:42.654Z,94054.94
2017-12-09T00:17:10.996Z,94058.69
2017-12-09T00:19:39.339Z,94068.48
2017-12-09T00:22:07.683Z,94060.80
2017-12-09T00:24:36.070Z,94068.53
2017-12-09T00:27:04.530Z,94069.54
2017-12-09T00:29:32.871Z,94062.47
2017-12-09T00:32:01.202Z,94054.09
2017-12-09T00:34:29.550Z,94057.44
2017-12-09T00:36:57.883Z,94068.69
2017-12-09T00:39:26.254Z,94065.06
2017-12-09T00:41:54.591Z,94060.98
2017-12-09T00:44:22.932Z,94061.42
2017-12-09T00:46:51.261Z,94058.05
2017-12-09T00:49:19.609Z,94069.53
2017-12-09T00:51:47.982Z,94070.73
2017-12-09T00:54:16.322Z,94069.98
2017-12-09T00:56:44.669Z,94067.95
2017-12-09T00:59:13.020Z,94067.72
2017-12-09T01:01:41.359Z,94074.03
2017-12-09T01:04:09.828Z,94076.49
2017-12-09T01:06:38.174Z,94083.14
2017-12-09T01:09:06.507Z,94073.33
2017-12-09T01:11:34.895Z,94076.85
2017-12-09T01:14:03.244Z,94077.11
2017-12-09T01:16:43.187Z,94088.41
2017-12-09T01:19:11.510Z,94068.58
2017-12-09T01:21:39.876Z,94083.27
2017-12-09T01:24:08.212Z,94086.10
2017-12-09T01:26:36.550Z,94076.94
2017-12-09T01:29:04.922Z,94076.61
2017-12-09T01:31:33.258Z,94075.28
2017-12-09T01:34:01.632Z,94077.61
2017-12-09T01:36:30.000Z,94075.95
2017-12-09T01:38:58.334Z,94080.58
2017-12-09T01:41:26.683Z,94082.57
2017-12-09T01:43:55.320Z,94074.11
2017-12-09T01:46:24.405Z,94081.83
2017-12-09T01:48:53.471Z,94085.43
2017-12-09T01:51:23.131Z,94073.58
2017-12-09T01:53:52.953Z,94079.22
2017-12-09T01:56:21.608Z,94080.00
2017-12-09T01:58:50.182Z,94085.56
2017-12-09T02:01:18.563Z,94077.59
2017-12-09T02:03:48.040Z,94082.91
2017-12-09T02:06:16.468Z,94092.25
2017-12-09T02:08:44.809Z,94090.23
2017-12-09T02:11:13.147Z,94100.89
2017-12-09T02:13:41.478Z,94099.47
2017-12-09T02:16:10.008Z,94100.28
2017-12-09T02:18:38.346Z,94105.59
2017-12-09T02:21:06.711Z,94101.63
2017-12-09T02:23:35.046Z,94101.56
2017-12-09T02:26:04.399Z,94099.58
2017-12-09T02:28:32.795Z,94114.30
2017-12-09T02:31:01.133Z,94101.45
2017-12-09T02:33:29.463Z,94101.84
2017-12-09T02:35:57.812Z,94110.86
2017-12-09T02:38:26.153Z,94115.91
2017-12-09T02:40:54.527Z,94097.80
2017-12-09T02:43:22.863Z,94114.41
2017-12-09T02:45:52.214Z,94111.12
2017-12-09T02:48:20.563Z,94123.73
2017-12-09T02:50:48.898Z,94119.31
2017-12-09T02:53:17.241Z,94119.87
2017-12-09T02:55:45.578Z,94120.02
2017-12-09T02:58:13.927Z,94115.62
2017-12-09T03:00:42.270Z,94110.06
2017-12-09T03:03:10.613Z,94115.95
2017-12-09T03:05:38.968Z,94108.93
2017-12-09T03:08:07.435Z,94109.47
2017-12-09T03:10:35.942Z,94116.59
2017-12-09T03:13:04.273Z,94123.28
2017-12-09T03:15:32.646Z,94116.87
2017-12-09T03:18:01.015Z,94111.09
2017-12-09T03:20:29.357Z,94119.25
2017-12-09T03:22:57.730Z,94112.35
2017-12-09T03:25:26.123Z,94095.73
2017-12-09T03:27:54.454Z,94105.11
2017-12-09T03:30:22.796Z,94109.02
2017-12-09T03:32:51.165Z,94109.27
2017-12-09T03:35:19.529Z,94121.44
2017-12-09T03:37:47.904Z,94119.70
2017-12-09T03:40:16.274Z,94113.41
2017-12-09T03:42:44.633Z,94109.30
2017-12-09T03:45:12.965Z,94118.88
2017-12-09T03:47:41.331Z,94106.63
2017-12-09T03:50:09.667Z,94104.65
2017-12-09T03:52:38.006Z,94107.34
2017-12-09T03:55:06.366Z,94094.82
2017-12-09T03:57:34.740Z,94092.02
2017-12-09T04:02:43.039Z,94095.48
2017-12-09T04:05:11.393Z,94093.45
2017-12-09T04:07:39.727Z,94098.35
2017-12-09T04:10:08.067Z,94097.51
2017-12-09T04:12:36.410Z,94092.97
2017-12-09T04:15:04.789Z,94082.38
2017-12-09T04:17:33.128Z,94079.98
2017-12-09T04:20:01.500Z,94082.73
2017-12-09T04:22:29.834Z,94096.53
2017-12-09T04:24:58.175Z,94088.30
2017-12-09T04:27:26.547Z,94098.77
2017-12-09T04:29:54.896Z,94100.77
2017-12-09T04:32:23.258Z,94103.36
2017-12-09T04:34:51.610Z,94092.13
2017-12-09T04:37:19.962Z,94094.88
2017-12-09T04:39:48.311Z,94110.47
2017-12-09T04:42:16.655Z,94097.75
2017-12-09T04:44:45.033Z,94101.45
2017-12-09T04:47:13.376Z,94094.77
2017-12-09T04:49:41.714Z,94097.46
2017-12-09T04:52:10.046Z,94095.05
2017-12-09T04:54:38.392Z,94102.02
2017-12-09T04:57:06.751Z,94107.48
2017-12-09T04:59:35.090Z,94112.33
2017-12-09T05:02:03.452Z,94121.44
2017-12-09T05:04:31.784Z,94116.84
2017-12-09T05:07:00.123Z,94116.98
2017-12-09T05:09:28.634Z,94108.09
2017-12-09T05:11:57.123Z,94109.17
2017-12-09T05:14:25.466Z,94124.17
2017-12-09T05:16:53.810Z,94110.44
2017-12-09T05:19:22.152Z,94120.80
2017-12-09T05:21:50.542Z,94114.81
2017-12-09T05:24:18.873Z,94117.52
2017-12-09T05:26:47.211Z,94124.54
2017-12-09T05:29:15.554Z,94121.88
2017-12-09T05:31:43.890Z,94130.03
2017-12-09T05:34:12.358Z,94128.27
2017-12-09T05:36:40.689Z,94132.92
2017-12-09T05:39:09.038Z,94119.97
2017-12-09T05:41:37.390Z,94121.05
2017-12-09T05:44:05.722Z,94114.11
2017-12-09T05:46:34.097Z,94116.43
2017-12-09T05:49:02.446Z,94108.52
2017-12-09T05:51:30.818Z,94110.69
2017-12-09T05:53:59.175Z,94124.11
2017-12-09T05:56:27.564Z,94114.81
2017-12-09T05:58:55.946Z,94111.51
2017-12-09T06:01:24.287Z,94122.54
2017-12-09T06:03:52.623Z,94121.39
2017-12-09T06:06:20.971Z,94139.42
2017-12-09T06:08:49.306Z,94135.16
2017-12-09T06:11:17.676Z,94121.89
2017-12-09T06:13:46.023Z,94120.73
2017-12-09T06:16:14.365Z,94116.92
2017-12-09T06:18:42.711Z,94108.46
2017-12-09T06:21:11.066Z,94118.20
2017-12-09T06:23:39.449Z,94115.38
2017-12-09T06:26:07.791Z,94113.91
2017-12-09T06:28:36.129Z,94116.77
2017-12-09T06:31:04.492Z,94116.02
2017-12-09T06:33:32.857Z,94119.23
2017-12-09T06:36:01.249Z,94113.20
2017-12-09T06:38:29.597Z,94107.38
2017-12-09T06:40:57.930Z,94104.49
2017-12-09T06:43:26.274Z,94109.37
2017-12-09T06:45:54.606Z,94102.84
2017-12-09T06:48:22.974Z,94094.37
2017-12-09T06:50:51.312Z,94094.50
2017-12-09T06:53:19.687Z,94083.86
2017-12-09T06:55:48.025Z,94089.83
2017-12-09T06:58:16.411Z,94088.13
2017-12-09T07:00:44.751Z,94095.70
2017-12-09T07:03:13.087Z,94087.52
2017-12-09T07:05:41.435Z,94096.81
2017-12-09T07:08:09.774Z,94092.95
2017-12-09T07:10:38.114Z,94087.69
2017-12-09T07:13:06.497Z,94084.44
2017-12-09T07:15:34.829Z,94088.99
2017-12-09T07:18:03.173Z,94096.36
2017-12-09T07:20:31.548Z,94090.08
2017-12-09T07:22:59.883Z,94102.05
2017-12-09T07:25:28.262Z,94094.53
2017-12-09T07:27:56.616Z,94079.47
2017-12-09T07:30:24.954Z,94089.39
2017-12-09T07:32:53.296Z,94108.69
2017-12-09T07:35:21.639Z,94108.95
2017-12-09T07:37:50.113Z,94106.45
2017-12-09T07:40:18.455Z,94107.15
2017-12-09T07:42:46.800Z,94105.62
2017-12-09T07:45:15.147Z,94112.55
2017-12-09T07:47:43.483Z,94120.09
2017-12-09T07:50:11.827Z,94107.64
2017-12-09T07:52:40.162Z,94109.30
2017-12-09T07:55:08.544Z,94113.50
2017-12-09T07:57:36.911Z,94123.59
2017-12-09T08:00:05.241Z,94119.88
2017-12-09T08:02:33.601Z,94122.16
2017-12-09T08:05:01.965Z,94121.14
2017-12-09T08:07:30.350Z,94116.17
2017-12-09T08:09:58.704Z,94115.56
2017-12-09T08:12:27.063Z,94120.91
2017-12-09T08:14:55.410Z,94132.27
2017-12-09T08:17:23.750Z,94131.67
2017-12-09T08:19:52.124Z,94130.08
2017-12-09T08:22:20.460Z,94136.33
2017-12-09T08:24:48.805Z,94130.97
2017-12-09T08:27:17.163Z,94143.91
2017-12-09T08:29:45.505Z,94141.42
2017-12-09T08:32:14.033Z,94134.81
2017-12-09T08:34:42.385Z,94155.33
2017-12-09T08:37:10.714Z,94155.59
2017-12-09T08:39:39.065Z,94162.31
2017-12-09T08:42:07.414Z,94175.42
2017-12-09T08:44:35.796Z,94169.84
2017-12-09T08:47:04.137Z,94168.41
2017-12-09T08:49:32.508Z,94182.30
2017-12-09T08:52:00.846Z,94177.45
2017-12-09T08:54:29.177Z,94176.80
2017-12-09T08:56:57.565Z,94185.66
2017-12-09T08:59:25.898Z,94174.30
2017-12-09T09:01:54.274Z,94171.95
2017-12-09T09:04:22.622Z,94171.70
2017-12-09T09:06:50.967Z,94178.58
2017-12-09T09:09:19.352Z,94176.25
2017-12-09T09:11:47.702Z,94175.75
2017-12-09T09:14:16.074Z,94187.05
2017-12-09T09:16:44.428Z,94185.28
2017-12-09T09:19:12.782Z,94196.56
2017-12-09T09:21:41.116Z,94198.24
2017-12-09T09:24:09.470Z,94196.78
2017-12-09T09:26:37.844Z,94203.31
2017-12-09T09:29:06.187Z,94213.36
2017-12-09T09:31:34.531Z,94207.08
2017-12-09T09:34:02.870Z,94218.20
2017-12-09T09:36:31.242Z,94215.91
2017-12-09T09:38:59.632Z,94227.74
2017-12-09T09:41:28.003Z,94220.48
2017-12-09T09:43:56.351Z,94223.09
2017-12-09T09:46:24.825Z,94222.14
2017-12-09T09:48:53.163Z,94219.30
2017-12-09T09:51:21.500Z,94218.52
2017-12-09T09:53:49.862Z,94219.00
2017-12-09T09:56:18.215Z,94214.50
2017-12-09T09:58:46.584Z,94225.48
2017-12-09T10:01:14.934Z,94229.05
2017-12-09T10:03:43.271Z,94233.25
2017-12-09T10:06:11.615Z,94231.73
2017-12-09T10:08:39.973Z,94227.95
2017-12-09T10:11:08.343Z,94222.92
2017-12-09T10:13:36.702Z,94224.73
2017-12-09T10:16:06.206Z,94215.53
2017-12-09T10:18:34.552Z,94217.70
2017-12-09T10:21:02.890Z,94214.86
2017-12-09T10:23:31.353Z,94214.86
2017-12-09T10:25:59.686Z,94218.59
2017-12-09T10:28:28.034Z,94223.70
2017-12-09T10:30:56.414Z,94220.09
2017-12-09T10:33:24.739Z,94218.56
2017-12-09T10:35:53.115Z,94221.73
2017-12-09T10:38:22.358Z,94209.64
2017-12-09T10:40:52.389Z,94217.84
2017-12-09T10:43:20.722Z,94214.70
2017-12-09T10:45:49.084Z,94217.06
2017-12-09T10:48:17.461Z,94220.10
2017-12-09T10:50:45.809Z,94218.59
2017-12-09T10:53:14.146Z,94209.13
2017-12-09T10:55:42.494Z,94211.04
2017-12-09T10:58:10.841Z,94211.98
2017-12-09T11:00:39.355Z,94201.44
2017-12-09T11:03:07.699Z,94197.62
2017-12-09T11:05:36.042Z,94196.55
2017-12-09T11:08:04.386Z,94200.05
2017-12-09T11:10:32.731Z,94196.12
2017-12-09T11:13:01.094Z,94195.14
2017-12-09T11:15:29.435Z,94200.95
2017-12-09T11:17:58.069Z,94200.60
2017-12-09T11:20:26.449Z,94204.09
2017-12-09T11:22:54.817Z,94207.75
2017-12-09T11:25:23.657Z,94199.07
2017-12-09T11:27:52.015Z,94206.77
2017-12-09T11:30:20.357Z,94200.19
2017-12-09T11:32:48.750Z,94196.99
2017-12-09T11:35:17.132Z,94207.70
2017-12-09T11:37:45.466Z,94206.38
2017-12-09T11:40:13.826Z,94212.12
2017-12-09T11:42:42.166Z,94215.80
2017-12-09T11:45:10.498Z,94210.34
2017-12-09T11:47:38.836Z,94212.05
2017-12-09T11:50:07.190Z,94209.22
2017-12-09T11:52:35.705Z,94205.92
2017-12-09T11:55:04.045Z,94211.45
2017-12-09T11:57:32.393Z,94211.84
2017-12-09T12:00:00.731Z,94210.06
2017-12-09T12:02:29.067Z,94212.83
2017-12-09T12:04:57.435Z,94212.06
2017-12-09T12:07:25.782Z,94211.32
2017-12-09T12:09:54.115Z,94210.77
2017-12-09T12:12:22.460Z,94204.47
2017-12-09T12:14:50.785Z,94206.91
2017-12-09T12:17:19.149Z,94208.72
2017-12-09T12:19:47.493Z,94202.22
2017-12-09T12:22:15.822Z,94200.53
2017-12-09T12:24:44.165Z,94198.31
2017-12-09T12:27:12.492Z,94202.98
2017-12-09T12:29:40.949Z,94198.24
2017-12-09T12:32:10.187Z,94206.11
2017-12-09T12:34:38.531Z,94213.48
2017-12-09T12:37:06.866Z,94202.86
2017-12-09T12:39:35.266Z,94204.68
2017-12-09T12:42:03.577Z,94196.58
2017-12-09T12:44:31.920Z,94205.11
2017-12-09T12:47:00.255Z,94202.86
2017-12-09T12:49:28.624Z,94202.97
2017-12-09T12:51:56.957Z,94198.88
2017-12-09T12:54:25.350Z,94199.17
2017-12-09T12:56:53.695Z,94199.09
2017-12-09T12:59:22.035Z,94211.42
2017-12-09T13:01:50.522Z,94199.95
2017-12-09T13:04:19.147Z,94195.07
2017-12-09T13:06:47.804Z,94199.11
2017-12-09T13:09:16.146Z,94197.25
2017-12-09T13:11:44.486Z,94198.20
2017-12-09T13:14:12.881Z,94195.06
2017-12-09T13:16:42.123Z,94204.58
2017-12-09T13:19:10.469Z,94204.77
2017-12-09T13:21:38.803Z,94206.07
2017-12-09T13:24:07.141Z,94204.45
2017-12-09T13:26:35.499Z,94201.97
2017-12-09T13:29:03.844Z,94209.67
2017-12-09T13:31:32.201Z,94208.59
2017-12-09T13:34:00.526Z,94201.28
2017-12-09T13:36:28.872Z,94206.72
2017-12-09T13:38:57.347Z,94207.19
2017-12-09T13:41:25.676Z,94205.10
2017-12-09T13:43:54.034Z,94207.20
2017-12-09T13:46:22.394Z,94203.59
2017-12-09T13:49:13.043Z,94208.52
2017-12-09T13:51:41.379Z,94202.61
2017-12-09T13:54:09.759Z,94195.81
2017-12-09T13:56:38.111Z,94207.14
2017-12-09T13:59:06.450Z,94201.50
2017-12-09T14:01:34.803Z,94202.84
2017-12-09T14:04:03.131Z,94205.89
2017-12-09T14:06:31.502Z,94210.84
2017-12-09T14:08:59.855Z,94206.80
2017-12-09T14:11:28.215Z,94207.63
2017-12-09T14:13:56.590Z,94211.56
2017-12-09T14:16:24.923Z,94212.41
2017-12-09T14:18:53.261Z,94219.29
2017-12-09T14:21:21.602Z,94209.73
2017-12-09T14:23:49.968Z,94208.85
2017-12-09T14:26:18.316Z,94205.91
2017-12-09T14:28:46.676Z,94212.20
2017-12-09T14:31:15.038Z,94208.14
2017-12-09T14:33:43.431Z,94211.29
2017-12-09T14:36:11.804Z,94204.59
2017-12-09T14:38:40.148Z,94208.48
2017-12-09T14:41:08.479Z,94205.11
2017-12-09T14:43:36.824Z,94203.37
2017-12-09T14:46:05.200Z,94198.59
2017-12-09T14:48:33.558Z,94193.22
2017-12-09T14:51:01.940Z,94188.13
2017-12-09T14:53:30.278Z,94186.36
2017-12-09T14:55:58.614Z,94200.27
2017-12-09T14:58:26.951Z,94191.07
2017-12-09T15:00:56.216Z,94194.64
2017-12-09T15:03:24.570Z,94198.53
2017-12-09T15:05:52.941Z,94187.55
2017-12-09T15:08:21.282Z,94185.92
2017-12-09T15:10:49.618Z,94188.66
2017-12-09T15:13:17.966Z,94191.42
2017-12-09T15:15:46.342Z,94185.04
2017-12-09T15:18:14.678Z,94181.62
2017-12-09T15:20:43.017Z,94178.31
2017-12-09T15:23:11.391Z,94183.22
2017-12-09T15:25:39.764Z,94184.80
2017-12-09T15:28:08.103Z,94188.34
2017-12-09T15:30:36.445Z,94190.16
2017-12-09T15:33:04.796Z,94190.58
2017-12-09T15:35:33.143Z,94184.75
2017-12-09T15:38:01.531Z,94191.41
2017-12-09T15:40:30.234Z,94197.43
2017-12-09T15:42:58.695Z,94176.57
2017-12-09T15:45:27.188Z,94181.02
2017-12-09T15:47:55.611Z,94182.36
2017-12-09T15:50:24.044Z,94180.03
2017-12-09T15:52:52.383Z,94186.09
2017-12-09T15:55:20.727Z,94187.51
2017-12-09T15:57:49.119Z,94190.01
2017-12-09T16:00:17.526Z,94192.12
2017-12-09T16:02:45.884Z,94188.44
2017-12-09T16:05:14.235Z,94191.98
2017-12-09T16:07:42.583Z,94190.23
2017-12-09T16:10:10.952Z,94191.42
2017-12-09T16:12:39.475Z,94177.36
2017-12-09T16:15:07.816Z,94182.80
2017-12-09T16:17:36.175Z,94176.88
2017-12-09T16:20:04.576Z,94182.36
2017-12-09T16:22:33.018Z,94182.64
2017-12-09T16:25:01.463Z,94169.78
2017-12-09T16:27:29.814Z,94172.69
2017-12-09T16:29:58.180Z,94173.05
2017-12-09T16:32:26.520Z,94183.79
2017-12-09T16:34:54.859Z,94176.05
2017-12-09T16:37:23.239Z,94179.74
2017-12-09T16:39:51.591Z,94192.50
2017-12-09T16:42:19.951Z,94171.25
2017-12-09T16:44:48.315Z,94181.12
2017-12-09T16:47:16.655Z,94183.20
2017-12-09T16:49:45.072Z,94181.62
2017-12-09T16:52:13.423Z,94181.34
2017-12-09T16:54:41.768Z,94179.33
2017-12-09T16:57:10.113Z,94176.58
2017-12-09T16:59:38.469Z,94181.84
2017-12-09T17:02:06.836Z,94183.41
2017-12-09T17:04:35.180Z,94200.47
2017-12-09T17:07:03.560Z,94185.98
2017-12-09T17:09:31.911Z,94184.42
2017-12-09T17:12:00.283Z,94193.61
2017-12-09T17:14:28.627Z,94171.64
2017-12-09T17:16:56.984Z,94185.30
2017-12-09T17:19:25.327Z,94189.33
2017-12-09T17:21:53.673Z,94188.65
2017-12-09T17:24:22.062Z,94195.29
2017-12-09T17:26:50.411Z,94194.14
2017-12-09T17:29:18.849Z,94186.95
2017-12-09T17:31:47.180Z,94189.25
2017-12-09T17:34:15.533Z,94186.97
2017-12-09T17:36:43.913Z,94178.33
2017-12-09T17:39:12.259Z,94185.80
2017-12-09T17:41:40.614Z,94191.59
2017-12-09T17:44:08.955Z,94186.54
2017-12-09T17:46:37.308Z,94186.24
2017-12-09T17:49:05.649Z,94191.00
2017-12-09T17:51:34.002Z,94181.07
2017-12-09T17:54:02.400Z,94187.91
2017-12-09T17:56:30.747Z,94188.56
2017-12-09T17:58:59.091Z,94191.77
2017-12-09T18:01:27.444Z,94191.13
2017-12-09T18:03:55.805Z,94205.12
2017-12-09T18:06:24.156Z,94204.12
2017-12-09T18:08:52.526Z,94197.22
2017-12-09T18:11:20.875Z,94200.36
2017-12-09T18:13:49.252Z,94193.28
2017-12-09T18:16:17.606Z,94196.08
2017-12-09T18:18:45.985Z,94202.17
2017-12-09T18:21:14.326Z,94205.88
2017-12-09T18:23:42.671Z,94198.72
2017-12-09T18:26:11.197Z,94194.10
2017-12-09T18:28:39.552Z,94189.27
2017-12-09T18:31:07.899Z,94187.67
2017-12-09T18:33:36.247Z,94188.20
2017-12-09T18:36:04.587Z,94192.64
2017-12-09T18:38:32.964Z,94185.38
2017-12-09T18:41:01.311Z,94187.41
2017-12-09T18:43:29.658Z,94192.16
2017-12-09T18:45:58.015Z,94186.68
2017-12-09T18:48:26.364Z,94196.38
2017-12-09T18:50:54.733Z,94187.97
2017-12-09T18:53:23.096Z,94188.05
2017-12-09T18:55:51.447Z,94196.04
2017-12-09T18:58:19.799Z,94192.89
2017-12-09T19:00:48.151Z,94191.34
2017-12-09T19:03:16.504Z,94190.28
2017-12-09T19:05:44.877Z,94191.77
2017-12-09T19:08:13.231Z,94190.84
2017-12-09T19:10:41.599Z,94199.63
2017-12-09T19:13:09.943Z,94195.54
2017-12-09T19:15:38.279Z,94195.34
2017-12-09T19:18:06.653Z,94189.17
2017-12-09T19:20:34.984Z,94196.59
2017-12-09T19:23:03.366Z,94187.80
2017-12-09T19:25:31.719Z,94185.48
2017-12-09T19:28:00.060Z,94185.64
2017-12-09T19:30:28.406Z,94181.56
2017-12-09T19:32:56.776Z,94189.17
2017-12-09T19:35:25.119Z,94182.84
2017-12-09T19:37:53.513Z,94188.42
2017-12-09T19:40:21.854Z,94189.17
2017-12-09T19:42:50.211Z,94180.94
2017-12-09T19:45:18.572Z,94173.62
2017-12-09T19:47:47.780Z,94181.27
2017-12-09T19:50:16.262Z,94177.44
2017-12-09T19:52:44.611Z,94168.98
2017-12-09T19:55:12.978Z,94171.32
2017-12-09T19:57:41.330Z,94164.43
2017-12-09T20:00:09.684Z,94155.53
2017-12-09T20:02:38.249Z,94174.70
2017-12-09T20:05:06.595Z,94161.70
2017-12-09T20:07:34.947Z,94158.50
2017-12-09T20:10:03.295Z,94153.09
2017-12-09T20:12:31.653Z,94153.88
2017-12-09T20:15:00.894Z,94151.58
2017-12-09T20:17:29.364Z,94154.87
2017-12-09T20:19:57.703Z,94152.23
2017-12-09T20:22:26.068Z,94136.71
2017-12-09T20:24:54.444Z,94139.34
2017-12-09T20:27:22.788Z,94137.76
2017-12-09T20:29:51.161Z,94132.91
2017-12-09T20:32:19.499Z,94127.97
2017-12-09T20:34:47.839Z,94125.70
2017-12-09T20:37:16.241Z,94129.70
2017-12-09T20:39:44.537Z,94125.64
2017-12-09T20:42:12.916Z,94135.79
2017-12-09T20:44:41.271Z,94130.39
2017-12-09T20:47:09.611Z,94120.17
2017-12-09T20:49:37.958Z,94124.85
2017-12-09T20:52:06.314Z,94128.18
2017-12-09T20:54:34.663Z,94108.00
2017-12-09T20:57:03.012Z,94114.03
2017-12-09T20:59:31.523Z,94123.26
2017-12-09T21:01:59.888Z,94114.50
2017-12-09T21:04:28.227Z,94115.64
2017-12-09T21:06:56.619Z,94104.53
2017-12-09T21:09:24.961Z,94103.42
2017-12-09T21:11:53.300Z,94099.84
2017-12-09T21:14:21.637Z,94098.00
2017-12-09T21:16:50.174Z,94092.86
2017-12-09T21:19:18.511Z,94088.84
2017-12-09T21:21:46.856Z,94086.80
2017-12-09T21:24:15.198Z,94079.77
2017-12-09T21:26:43.535Z,94074.62
2017-12-09T21:29:12.004Z,94074.65
2017-12-09T21:31:40.344Z,94067.00
2017-12-09T21:34:08.694Z,94064.63
2017-12-09T21:36:37.057Z,94060.48
2017-12-09T21:39:05.402Z,94054.52
2017-12-09T21:41:33.753Z,94058.20
2017-12-09T21:44:02.092Z,94050.58
2017-12-09T21:46:30.467Z,94056.69
2017-12-09T21:48:58.794Z,94054.13
2017-12-09T21:51:27.175Z,94061.13
2017-12-09T21:53:55.515Z,94046.30
2017-12-09T21:56:23.855Z,94039.74
2017-12-09T21:58:52.195Z,94048.98
2017-12-09T22:01:20.535Z,94043.98
2017-12-09T22:03:48.911Z,94029.08
2017-12-09T22:06:17.254Z,94031.47
2017-12-09T22:08:45.590Z,94035.97
2017-12-09T22:11:13.922Z,94028.90
2017-12-09T22:13:42.292Z,94019.78
2017-12-09T22:16:10.626Z,94025.72
2017-12-09T22:18:38.964Z,94031.22
2017-12-09T22:21:07.315Z,94027.77
2017-12-09T22:23:35.646Z,94027.46
2017-12-09T22:26:04.021Z,94022.25
2017-12-09T22:28:32.367Z,94018.78
2017-12-09T22:31:00.708Z,94017.16
2017-12-09T22:33:29.040Z,94012.45
2017-12-09T22:35:57.414Z,94005.33
2017-12-09T22:38:25.755Z,94005.23
2017-12-09T22:40:54.105Z,94003.79
2017-12-09T22:43:22.449Z,94008.10
2017-12-09T22:45:50.794Z,93995.52
2017-12-09T22:48:19.172Z,94003.97
2017-12-09T22:50:47.542Z,93990.64
2017-12-09T22:53:15.904Z,94001.73
2017-12-09T22:55:44.243Z,93982.72
2017-12-09T22:58:12.587Z,93979.73
2017-12-09T23:00:40.935Z,93988.80
2017-12-09T23:03:09.283Z,93975.53
2017-12-09T23:05:37.787Z,93970.93
2017-12-09T23:08:06.122Z,93966.33
2017-12-09T23:10:34.459Z,93957.70
2017-12-09T23:13:02.805Z,93958.53
2017-12-09T23:15:31.138Z,93946.78
2017-12-09T23:17:59.515Z,93948.81
2017-12-09T23:20:27.857Z,93945.31
2017-12-09T23:22:56.203Z,93939.45
2017-12-09T23:25:24.562Z,93929.62
2017-12-09T23:27:52.899Z,93933.34
2017-12-09T23:30:21.270Z,93935.52
2017-12-09T23:32:49.618Z,93922.92
2017-12-09T23:35:17.957Z,93918.63
2017-12-09T23:37:46.307Z,93916.23
2017-12-09T23:40:14.646Z,93917.92
2017-12-09T23:42:43.016Z,93903.70
2017-12-09T23:45:11.363Z,93911.92
2017-12-09T23:47:39.742Z,93905.91
2017-12-09T23:50:08.086Z,93905.39
2017-12-09T23:52:36.439Z,93894.03
2017-12-09T23:55:04.897Z,93898.79
2017-12-09T23:57:33.235Z,93892.22
